Time;durP1;ratioP1;P1;durP2;ratioP2;P2;SDS_P1;SDS_P2;PMS_P1;PMS_P2;Temp;Humidity;BMP_temperature;BMP_pressure;BME280_temperature;BME280_humidity;BME280_pressure;Samples;Min_cycle;Max_cycle;Signal;HPM_P1;HPM_P2
2023/03/01 00:02:01;;;;;;;;;;;;;;;11.15;77.23;100752.44;4805809;29;20438;-47
2023/03/01 00:04:27;;;;;;;;;;;;;;;11.24;76.23;100748.50;4802378;29;19921;-53
2023/03/01 00:06:53;;;;;;;;;;;;;;;11.36;77.47;100731.53;4801144;29;19928;-50
2023/03/01 00:09:19;;;;;;;;;;;;;;;11.40;75.85;100733.78;4805167;29;19917;-52
2023/03/01 00:11:45;;;;;;;;;;;;;;;11.38;76.88;100731.31;4805002;29;19921;-54
2023/03/01 00:14:11;;;;;;;;;;;;;;;11.45;77.28;100733.97;4797941;29;19978;-52
2023/03/01 00:16:39;;;;;;;;;;;;;;;11.68;78.19;100734.25;4794913;29;19921;-54
2023/03/01 00:19:05;;;;;;;;;;;;;;;11.64;76.72;100730.34;4803282;29;20377;-54
2023/03/01 00:21:31;;;;;;;;;;;;;;;11.71;75.83;100731.13;4805832;29;19921;-54
2023/03/01 00:23:57;;;;;;;;;;;;;;;11.72;75.79;100716.69;4805371;29;19948;-54
2023/03/01 00:26:24;;;;;;;;;;;;;;;11.69;75.08;100722.47;4789548;29;20333;-54
2023/03/01 00:28:50;;;;;;;;;;;;;;;11.46;75.57;100725.72;4805922;29;19924;-53
2023/03/01 00:31:18;;;;;;;;;;;;;;;11.63;74.27;100729.53;4805617;29;19929;-54
2023/03/01 00:33:44;;;;;;;;;;;;;;;11.23;73.40;100739.63;4805336;29;20304;-53
2023/03/01 00:36:11;;;;;;;;;;;;;;;10.32;74.13;100748.47;4805573;29;19998;-53
2023/03/01 00:38:37;;;;;;;;;;;;;;;10.06;76.92;100737.75;4804788;29;19917;-53
2023/03/01 00:41:04;;;;;;;;;;;;;;;9.71;77.37;100745.91;4805433;29;20372;-53
2023/03/01 00:43:30;;;;;;;;;;;;;;;9.54;76.68;100752.66;4805110;29;19921;-51
2023/03/01 00:46:00;;;;;;;;;;;;;;;9.34;78.34;100749.13;4805728;29;19928;-52
2023/03/01 00:48:26;;;;;;;;;;;;;;;9.36;78.32;100747.06;4805568;29;20302;-53
2023/03/01 00:50:52;;;;;;;;;;;;;;;9.10;78.72;100742.44;4805235;29;19920;-49
2023/03/01 00:53:18;;;;;;;;;;;;;;;9.03;77.48;100745.06;4805549;29;19917;-51
2023/03/01 00:55:43;;;;;;;;;;;;;;;8.94;77.35;100739.09;4803645;29;19929;-50
2023/03/01 00:58:09;;;;;;;;;;;;;;;8.80;78.66;100742.69;4786681;29;19925;-54
2023/03/01 01:00:35;;;;;;;;;;;;;;;8.75;78.66;100738.97;4786954;30;19926;-53
2023/03/01 01:03:01;;;;;;;;;;;;;;;8.78;78.50;100743.94;4786785;29;20296;-53
2023/03/01 01:05:27;;;;;;;;;;;;;;;8.76;78.06;100737.94;4787185;30;20016;-51
2023/03/01 01:07:53;;;;;;;;;;;;;;;8.66;78.28;100736.47;4786886;30;20293;-51
2023/03/01 01:10:19;;;;;;;;;;;;;;;8.72;77.90;100748.22;4786688;30;19923;-52
2023/03/01 01:12:45;;;;;;;;;;;;;;;8.60;78.99;100739.91;4787086;30;19921;-52
2023/03/01 01:15:13;;;;;;;;;;;;;;;8.57;79.16;100737.63;4786748;29;19917;-53
2023/03/01 01:17:40;;;;;;;;;;;;;;;8.80;76.18;100729.34;4787055;30;20682;-53
2023/03/01 01:20:06;;;;;;;;;;;;;;;8.75;76.88;100725.63;4786699;30;19933;-53
2023/03/01 01:22:32;;;;;;;;;;;;;;;8.84;76.44;100738.63;4786836;30;19924;-53
2023/03/01 01:24:58;;;;;;;;;;;;;;;8.75;76.80;100737.13;4786965;30;19917;-51
2023/03/01 01:27:23;;;;;;;;;;;;;;;8.80;76.33;100740.03;4786902;30;20015;-52
2023/03/01 01:29:49;;;;;;;;;;;;;;;8.75;77.37;100737.13;4798381;29;19921;-50
2023/03/01 01:32:15;;;;;;;;;;;;;;;8.82;78.12;100723.81;4803668;29;20654;-51
2023/03/01 01:34:41;;;;;;;;;;;;;;;8.81;77.51;100730.19;4794268;29;20397;-50
2023/03/01 01:37:07;;;;;;;;;;;;;;;8.70;77.48;100727.03;4803192;29;20369;-51
2023/03/01 01:39:34;;;;;;;;;;;;;;;8.54;77.18;100723.84;4805348;29;20381;-50
2023/03/01 01:42:01;;;;;;;;;;;;;;;8.57;77.97;100726.97;4798991;24;19933;-51
2023/03/01 01:44:28;;;;;;;;;;;;;;;8.60;78.16;100731.91;4775515;29;19929;-49
2023/03/01 01:46:54;;;;;;;;;;;;;;;8.64;77.92;100741.16;4788723;29;19992;-53
2023/03/01 01:49:27;;;;;;;;;;;;;;;8.56;76.96;100746.66;4771014;29;19938;-52
2023/03/01 01:51:59;;;;;;;;;;;;;;;8.33;77.74;100740.69;4772100;30;20345;-51
2023/03/01 01:54:29;;;;;;;;;;;;;;;8.30;78.73;100744.59;4788834;29;19921;-52
2023/03/01 01:57:03;;;;;;;;;;;;;;;8.42;79.64;100743.06;4790497;30;19925;-54
2023/03/01 01:59:30;;;;;;;;;;;;;;;8.54;77.24;100748.69;4790010;30;19918;-52
2023/03/01 02:01:59;;;;;;;;;;;;;;;8.35;77.43;100750.16;4796671;29;19921;-53
2023/03/01 02:04:25;;;;;;;;;;;;;;;8.26;76.48;100745.16;4808193;29;20691;-53
2023/03/01 02:06:58;;;;;;;;;;;;;;;8.16;76.06;100749.00;4806658;29;19918;-53
2023/03/01 02:09:23;;;;;;;;;;;;;;;8.21;75.49;100746.56;4789770;30;19917;-52
2023/03/01 02:11:51;;;;;;;;;;;;;;;8.15;74.78;100736.66;4789408;30;19923;-51
2023/03/01 02:14:17;;;;;;;;;;;;;;;8.12;74.77;100745.06;4790048;30;19970;-53
2023/03/01 02:16:43;;;;;;;;;;;;;;;8.23;73.76;100733.06;4789954;30;19917;-53
2023/03/01 02:19:11;;;;;;;;;;;;;;;8.22;75.01;100739.41;4790490;29;19917;-57
2023/03/01 02:21:43;;;;;;;;;;;;;;;8.30;73.77;100738.44;4774334;30;20016;-53
2023/03/01 02:24:29;;;;;;;;;;;;;;;8.35;73.93;100733.34;4789777;30;19917;-54
2023/03/01 02:26:56;;;;;;;;;;;;;;;8.37;74.84;100720.66;4763815;29;19922;-52
2023/03/01 02:29:26;;;;;;;;;;;;;;;8.34;72.63;100716.53;4773101;30;19932;-55
2023/03/01 02:31:53;;;;;;;;;;;;;;;8.48;72.13;100712.13;4785976;29;20017;-51
2023/03/01 02:34:21;;;;;;;;;;;;;;;8.10;72.08;100709.75;4777775;30;19925;-51
2023/03/01 02:36:52;;;;;;;;;;;;;;;7.90;73.70;100711.44;4779087;29;19921;-52
2023/03/01 02:39:22;;;;;;;;;;;;;;;8.23;72.15;100718.91;4782696;29;20345;-52
2023/03/01 02:41:50;;;;;;;;;;;;;;;8.30;70.31;100722.44;4780179;29;19966;-50
2023/03/01 02:44:15;;;;;;;;;;;;;;;8.29;71.79;100715.47;4789349;30;20392;-49
2023/03/01 02:46:42;;;;;;;;;;;;;;;8.27;70.95;100704.97;4789391;30;19918;-51
2023/03/01 02:49:26;;;;;;;;;;;;;;;8.35;71.37;100714.69;4789042;30;19940;-53
2023/03/01 02:52:02;;;;;;;;;;;;;;;8.42;70.39;100711.06;4789158;30;20381;-51
2023/03/01 02:54:28;;;;;;;;;;;;;;;8.36;71.03;100713.69;4789284;30;19921;-50
2023/03/01 02:56:54;;;;;;;;;;;;;;;8.45;70.30;100712.53;4789261;30;19922;-52
2023/03/01 02:59:21;;;;;;;;;;;;;;;8.56;67.11;100720.00;4789189;30;19957;-49
2023/03/01 03:01:47;;;;;;;;;;;;;;;8.50;69.06;100722.63;4788335;29;19917;-52
2023/03/01 03:04:17;;;;;;;;;;;;;;;8.62;67.49;100729.88;4788875;30;19921;-53
2023/03/01 03:06:46;;;;;;;;;;;;;;;8.41;68.53;100722.75;4789369;30;19941;-51
2023/03/01 03:09:12;;;;;;;;;;;;;;;8.09;68.86;100729.44;4788820;30;19921;-53
2023/03/01 03:11:40;;;;;;;;;;;;;;;8.19;69.04;100721.94;4788740;30;19950;-54
2023/03/01 03:14:12;;;;;;;;;;;;;;;8.29;69.88;100723.47;4787463;29;20368;-53
2023/03/01 03:16:45;;;;;;;;;;;;;;;8.01;70.03;100734.09;4784309;30;20385;-53
2023/03/01 03:19:11;;;;;;;;;;;;;;;7.76;71.36;100728.31;4785226;30;19956;-54
2023/03/01 03:21:37;;;;;;;;;;;;;;;7.74;70.96;100735.69;4783312;30;19928;-52
2023/03/01 03:24:03;;;;;;;;;;;;;;;7.56;71.36;100736.94;4788505;30;19917;-52
2023/03/01 03:26:29;;;;;;;;;;;;;;;7.50;71.08;100737.69;4788354;30;20301;-51
2023/03/01 03:28:56;;;;;;;;;;;;;;;7.40;72.40;100745.16;4788159;30;20381;-51
2023/03/01 03:31:22;;;;;;;;;;;;;;;7.41;72.65;100744.97;4788145;30;20017;-51
2023/03/01 03:33:48;;;;;;;;;;;;;;;7.59;71.04;100739.22;4786244;30;19982;-49
2023/03/01 03:36:21;;;;;;;;;;;;;;;7.59;70.89;100733.88;4788138;30;19929;-52
2023/03/01 03:38:46;;;;;;;;;;;;;;;7.53;70.48;100739.97;4787784;30;19921;-51
2023/03/01 03:41:12;;;;;;;;;;;;;;;7.41;70.55;100741.47;4787848;30;19914;-49
2023/03/01 03:43:39;;;;;;;;;;;;;;;7.36;72.70;100726.06;4788213;30;19929;-50
2023/03/01 03:46:06;;;;;;;;;;;;;;;7.55;72.86;100729.13;4788292;30;19983;-53
2023/03/01 03:48:33;;;;;;;;;;;;;;;7.53;72.53;100726.66;4788278;30;19925;-51
2023/03/01 03:50:59;;;;;;;;;;;;;;;7.51;71.50;100720.72;4787517;30;20013;-49
2023/03/01 03:53:26;;;;;;;;;;;;;;;7.56;72.72;100730.78;4787955;30;20020;-49
2023/03/01 03:55:53;;;;;;;;;;;;;;;7.36;71.56;100752.69;4787912;30;19982;-49
2023/03/01 03:58:20;;;;;;;;;;;;;;;7.18;72.97;100749.63;4787899;30;20080;-49
2023/03/01 04:00:47;;;;;;;;;;;;;;;7.06;74.20;100746.59;4787331;30;19921;-49
2023/03/01 04:03:14;;;;;;;;;;;;;;;7.18;75.04;100746.13;4787713;30;20346;-52
2023/03/01 04:05:40;;;;;;;;;;;;;;;7.25;74.97;100744.38;4787471;30;20346;-52
2023/03/01 04:08:07;;;;;;;;;;;;;;;7.08;76.04;100738.44;4787664;30;19924;-52
2023/03/01 04:10:35;;;;;;;;;;;;;;;7.05;75.79;100738.78;4772779;30;19917;-52
2023/03/01 04:13:01;;;;;;;;;;;;;;;7.11;75.38;100738.88;4769704;30;19924;-51
2023/03/01 04:15:27;;;;;;;;;;;;;;;7.17;75.51;100733.84;4775696;30;19953;-54
2023/03/01 04:17:53;;;;;;;;;;;;;;;7.19;76.37;100726.47;4787610;30;19970;-54
2023/03/01 04:20:24;;;;;;;;;;;;;;;7.24;75.53;100721.41;4787377;30;19924;-53
2023/03/01 04:22:57;;;;;;;;;;;;;;;7.41;74.57;100725.50;4787730;30;20396;-53
2023/03/01 04:25:23;;;;;;;;;;;;;;;7.48;73.85;100717.59;4787522;30;19996;-53
2023/03/01 04:27:49;;;;;;;;;;;;;;;7.33;74.80;100722.97;4787618;30;19921;-54
2023/03/01 04:30:15;;;;;;;;;;;;;;;7.20;75.31;100722.78;4786104;30;19933;-50
2023/03/01 04:32:41;;;;;;;;;;;;;;;7.21;76.05;100719.94;4786630;30;19927;-51
2023/03/01 04:35:07;;;;;;;;;;;;;;;7.23;75.57;100715.28;4786102;30;19926;-51
2023/03/01 04:37:34;;;;;;;;;;;;;;;7.55;73.21;100715.81;4784779;30;19957;-51
2023/03/01 04:40:00;;;;;;;;;;;;;;;7.41;73.26;100707.69;4786416;30;19929;-52
2023/03/01 04:42:26;;;;;;;;;;;;;;;7.49;73.13;100712.06;4768998;30;19921;-53
2023/03/01 04:44:52;;;;;;;;;;;;;;;7.44;73.38;100718.97;4786335;30;19944;-53
2023/03/01 04:47:18;;;;;;;;;;;;;;;7.53;73.74;100718.66;4787147;30;19982;-53
2023/03/01 04:49:44;;;;;;;;;;;;;;;7.47;74.10;100719.44;4786944;30;19963;-52
2023/03/01 04:52:10;;;;;;;;;;;;;;;7.59;72.23;100725.06;4774024;30;19921;-53
2023/03/01 04:54:36;;;;;;;;;;;;;;;7.53;73.07;100728.50;4775716;30;19922;-51
2023/03/01 04:57:03;;;;;;;;;;;;;;;7.61;72.78;100720.41;4781986;30;20007;-52
2023/03/01 04:59:29;;;;;;;;;;;;;;;7.63;73.00;100718.38;4777251;30;19921;-51
2023/03/01 05:01:55;;;;;;;;;;;;;;;7.74;73.66;100717.03;4781027;30;19928;-53
2023/03/01 05:04:22;;;;;;;;;;;;;;;7.84;73.67;100715.72;4786995;30;19924;-52
2023/03/01 05:06:47;;;;;;;;;;;;;;;7.71;73.89;100709.41;4783059;30;20040;-53
2023/03/01 05:09:13;;;;;;;;;;;;;;;7.88;73.14;100694.81;4773766;30;20020;-53
2023/03/01 05:11:39;;;;;;;;;;;;;;;7.88;73.01;100684.16;4762781;30;20001;-52
2023/03/01 05:14:06;;;;;;;;;;;;;;;7.88;73.18;100692.16;4786610;30;19932;-53
2023/03/01 05:16:33;;;;;;;;;;;;;;;7.78;72.13;100691.66;4786690;30;19925;-53
2023/03/01 05:18:59;;;;;;;;;;;;;;;7.68;71.76;100706.13;4787131;30;19952;-53
2023/03/01 05:21:25;;;;;;;;;;;;;;;7.74;70.99;100730.34;4787165;30;19921;-52
2023/03/01 05:23:51;;;;;;;;;;;;;;;7.45;72.70;100734.78;4787306;29;19953;-52
2023/03/01 05:26:18;;;;;;;;;;;;;;;7.51;72.08;100747.34;4790313;30;19918;-52
2023/03/01 05:28:44;;;;;;;;;;;;;;;7.82;71.39;100740.88;4788180;30;19917;-49
2023/03/01 05:31:10;;;;;;;;;;;;;;;8.03;70.86;100746.22;4776320;30;19924;-53
2023/03/01 05:33:37;;;;;;;;;;;;;;;7.72;71.64;100751.03;4790603;30;20017;-50
2023/03/01 05:36:03;;;;;;;;;;;;;;;7.62;72.54;100754.84;4790460;30;19918;-54
2023/03/01 05:38:29;;;;;;;;;;;;;;;7.58;72.74;100734.91;4790148;30;20008;-53
2023/03/01 05:40:55;;;;;;;;;;;;;;;7.61;73.38;100726.56;4790235;30;20013;-53
2023/03/01 05:43:21;;;;;;;;;;;;;;;7.59;73.73;100717.09;4790240;30;20060;-54
2023/03/01 05:45:47;;;;;;;;;;;;;;;7.77;71.90;100722.78;4785085;30;19918;-51
2023/03/01 05:48:13;;;;;;;;;;;;;;;7.87;72.92;100719.81;4776393;30;20400;-53
2023/03/01 05:50:40;;;;;;;;;;;;;;;7.69;72.57;100725.59;4789930;30;19921;-48
2023/03/01 05:53:12;;;;;;;;;;;;;;;7.46;74.32;100704.47;4790095;30;19913;-52
2023/03/01 05:55:38;;;;;;;;;;;;;;;7.28;74.05;100702.22;4790149;30;20301;-53
2023/03/01 05:58:06;;;;;;;;;;;;;;;7.39;73.63;100690.25;4790134;30;20435;-49
2023/03/01 06:00:32;;;;;;;;;;;;;;;7.27;70.84;100665.13;4789647;30;19962;-50
2023/03/01 06:02:58;;;;;;;;;;;;;;;7.31;70.89;100674.38;4790040;30;20369;-52
2023/03/01 06:05:25;;;;;;;;;;;;;;;7.10;72.42;100685.81;4790222;30;19924;-49
2023/03/01 06:07:51;;;;;;;;;;;;;;;7.04;72.89;100686.56;4789866;30;19936;-52
2023/03/01 06:10:17;;;;;;;;;;;;;;;7.10;73.37;100694.63;4789614;30;20020;-53
2023/03/01 06:12:44;;;;;;;;;;;;;;;7.08;72.75;100701.16;4775165;30;19956;-52
2023/03/01 06:15:11;;;;;;;;;;;;;;;6.95;73.41;100704.50;4788880;30;20123;-52
2023/03/01 06:17:38;;;;;;;;;;;;;;;7.02;73.52;100705.41;4788581;30;19967;-52
2023/03/01 06:20:05;;;;;;;;;;;;;;;7.02;74.16;100700.06;4788501;30;19986;-51
2023/03/01 06:22:30;;;;;;;;;;;;;;;7.13;73.75;100699.59;4785030;30;19929;-53
2023/03/01 06:24:56;;;;;;;;;;;;;;;7.08;73.88;100691.34;4789717;30;19921;-53
2023/03/01 06:27:22;;;;;;;;;;;;;;;7.10;73.62;100686.66;4789497;30;19932;-53
2023/03/01 06:29:48;;;;;;;;;;;;;;;7.08;73.13;100691.34;4789135;30;19917;-50
2023/03/01 06:32:14;;;;;;;;;;;;;;;7.09;73.11;100690.31;4789415;30;20411;-50
2023/03/01 06:34:40;;;;;;;;;;;;;;;7.08;72.88;100688.69;4789379;30;19940;-51
2023/03/01 06:37:06;;;;;;;;;;;;;;;7.05;72.06;100691.72;4788287;29;20373;-51
2023/03/01 06:39:32;;;;;;;;;;;;;;;7.13;70.95;100691.59;4788846;30;20420;-52
2023/03/01 06:41:58;;;;;;;;;;;;;;;7.08;70.59;100683.34;4789231;29;19927;-53
2023/03/01 06:44:24;;;;;;;;;;;;;;;7.15;69.14;100675.44;4789209;30;19921;-53
2023/03/01 06:46:50;;;;;;;;;;;;;;;6.96;69.45;100668.06;4776303;30;19957;-52
2023/03/01 06:49:17;;;;;;;;;;;;;;;6.95;69.83;100674.41;4771283;30;19964;-51
2023/03/01 06:51:43;;;;;;;;;;;;;;;6.86;69.99;100679.00;4771424;30;19975;-50
2023/03/01 06:54:09;;;;;;;;;;;;;;;6.82;70.81;100670.53;4771170;30;20373;-51
2023/03/01 06:56:35;;;;;;;;;;;;;;;6.84;70.65;100675.69;4778198;30;19921;-53
2023/03/01 06:59:02;;;;;;;;;;;;;;;6.57;71.36;100675.34;4789128;30;19924;-51
2023/03/01 07:01:28;;;;;;;;;;;;;;;6.59;71.28;100673.31;4789110;30;20362;-51
2023/03/01 07:03:54;;;;;;;;;;;;;;;6.36;72.42;100675.25;4788948;30;19917;-48
2023/03/01 07:06:20;;;;;;;;;;;;;;;6.38;71.92;100670.56;4788739;30;19921;-49
2023/03/01 07:08:46;;;;;;;;;;;;;;;6.28;71.18;100664.72;4788336;30;19921;-51
2023/03/01 07:11:12;;;;;;;;;;;;;;;6.18;71.58;100669.47;4773123;30;20001;-48
2023/03/01 07:13:37;;;;;;;;;;;;;;;6.21;71.55;100674.41;4788564;30;19917;-50
2023/03/01 07:16:03;;;;;;;;;;;;;;;6.15;72.00;100675.13;4788680;30;19917;-49
2023/03/01 07:18:29;;;;;;;;;;;;;;;5.98;73.35;100682.44;4788229;30;19921;-54
2023/03/01 07:20:55;;;;;;;;;;;;;;;6.12;73.39;100694.09;4788526;30;19921;-50
2023/03/01 07:23:21;;;;;;;;;;;;;;;6.00;73.44;100685.75;4788337;30;20020;-52
2023/03/01 07:25:53;;;;;;;;;;;;;;;6.07;72.55;100692.81;4788583;30;19967;-50
2023/03/01 07:28:19;;;;;;;;;;;;;;;6.02;71.83;100681.88;4788007;30;19924;-51
2023/03/01 07:30:45;;;;;;;;;;;;;;;5.92;71.12;100681.31;4787262;30;20313;-51
2023/03/01 07:33:11;;;;;;;;;;;;;;;5.85;71.50;100676.88;4785106;30;19925;-51
2023/03/01 07:35:37;;;;;;;;;;;;;;;5.64;72.82;100680.19;4781677;30;19921;-50
2023/03/01 07:38:03;;;;;;;;;;;;;;;5.55;73.36;100669.66;4787856;30;19928;-50
2023/03/01 07:40:29;;;;;;;;;;;;;;;5.71;74.11;100673.16;4784679;30;19914;-50
2023/03/01 07:42:55;;;;;;;;;;;;;;;5.67;74.30;100670.06;4770065;30;20385;-49
2023/03/01 07:45:21;;;;;;;;;;;;;;;5.79;74.09;100658.00;4770157;30;20008;-51
2023/03/01 07:47:47;;;;;;;;;;;;;;;5.64;74.35;100661.59;4778373;29;20035;-52
2023/03/01 07:50:13;;;;;;;;;;;;;;;5.77;74.21;100664.47;4788106;30;19952;-48
2023/03/01 07:52:39;;;;;;;;;;;;;;;5.89;73.67;100664.91;4788043;30;19921;-52
2023/03/01 07:55:05;;;;;;;;;;;;;;;5.95;73.01;100672.19;4787853;30;19940;-50
2023/03/01 07:57:31;;;;;;;;;;;;;;;5.99;73.13;100665.47;4782112;30;19961;-52
2023/03/01 07:59:57;;;;;;;;;;;;;;;5.80;73.33;100669.44;4783786;30;20235;-51
2023/03/01 08:02:23;;;;;;;;;;;;;;;5.77;74.27;100659.16;4787138;30;19929;-49
2023/03/01 08:04:48;;;;;;;;;;;;;;;5.81;74.23;100663.13;4786651;30;19928;-51
2023/03/01 08:07:14;;;;;;;;;;;;;;;5.97;72.52;100662.19;4786952;30;19974;-51
2023/03/01 08:09:40;;;;;;;;;;;;;;;6.02;71.36;100670.44;4786325;30;19972;-49
2023/03/01 08:12:06;;;;;;;;;;;;;;;5.87;72.40;100661.56;4786179;30;19925;-48
2023/03/01 08:14:32;;;;;;;;;;;;;;;5.80;72.42;100672.09;4786305;30;19929;-50
2023/03/01 08:16:58;;;;;;;;;;;;;;;5.82;71.11;100672.72;4786394;30;20411;-50
2023/03/01 08:19:24;;;;;;;;;;;;;;;5.86;70.04;100676.69;4787281;30;19928;-50
2023/03/01 08:21:50;;;;;;;;;;;;;;;5.72;70.22;100669.50;4786956;30;19970;-49
2023/03/01 08:24:16;;;;;;;;;;;;;;;5.65;70.09;100674.69;4778508;30;19926;-48
2023/03/01 08:26:41;;;;;;;;;;;;;;;5.72;69.34;100678.31;4786756;30;20428;-48
2023/03/01 08:29:07;;;;;;;;;;;;;;;5.84;67.82;100668.09;4787312;30;19970;-49
2023/03/01 08:31:35;;;;;;;;;;;;;;;5.53;68.39;100668.97;4786275;30;19928;-51
2023/03/01 08:34:02;;;;;;;;;;;;;;;5.52;69.29;100677.13;4786056;30;19929;-52
2023/03/01 08:36:29;;;;;;;;;;;;;;;5.55;68.65;100674.09;4786518;30;19929;-50
2023/03/01 08:38:55;;;;;;;;;;;;;;;5.53;68.01;100668.16;4774584;30;19928;-52
2023/03/01 08:41:21;;;;;;;;;;;;;;;5.41;68.06;100680.19;4771136;30;19928;-52
2023/03/01 08:43:47;;;;;;;;;;;;;;;5.35;68.99;100683.56;4769127;30;20420;-49
2023/03/01 08:46:13;;;;;;;;;;;;;;;5.51;67.44;100683.44;4782901;30;19921;-49
2023/03/01 08:48:39;;;;;;;;;;;;;;;5.44;66.82;100683.31;4785903;30;19998;-52
2023/03/01 08:51:12;;;;;;;;;;;;;;;5.25;67.31;100686.41;4786169;30;19921;-52
2023/03/01 08:53:39;;;;;;;;;;;;;;;5.08;67.99;100687.50;4786403;30;19921;-52
2023/03/01 08:56:04;;;;;;;;;;;;;;;5.19;66.70;100685.28;4785901;30;19925;-52
2023/03/01 08:58:30;;;;;;;;;;;;;;;5.21;67.43;100683.28;4778493;30;20407;-51
2023/03/01 09:00:56;;;;;;;;;;;;;;;5.11;67.87;100677.41;4785199;30;19933;-52
2023/03/01 09:03:23;;;;;;;;;;;;;;;5.23;67.25;100683.13;4787001;30;19917;-51
2023/03/01 09:05:50;;;;;;;;;;;;;;;5.15;67.34;100683.97;4784333;30;20400;-51
2023/03/01 09:08:16;;;;;;;;;;;;;;;4.98;67.37;100688.53;4768840;30;19921;-50
2023/03/01 09:10:42;;;;;;;;;;;;;;;4.99;67.06;100695.50;4768909;30;19918;-51
2023/03/01 09:13:08;;;;;;;;;;;;;;;5.01;67.63;100696.16;4780358;30;19928;-53
2023/03/01 09:15:36;;;;;;;;;;;;;;;5.06;66.84;100695.66;4770853;30;20285;-52
2023/03/01 09:18:02;;;;;;;;;;;;;;;5.02;67.17;100689.03;4786784;30;19929;-51
2023/03/01 09:20:28;;;;;;;;;;;;;;;4.98;67.25;100691.19;4786818;30;19921;-53
2023/03/01 09:22:54;;;;;;;;;;;;;;;5.00;67.65;100688.41;4786881;30;19923;-50
2023/03/01 09:25:20;;;;;;;;;;;;;;;4.97;67.51;100686.91;4770672;30;19918;-49
2023/03/01 09:27:46;;;;;;;;;;;;;;;4.80;67.55;100679.19;4768956;30;19925;-50
2023/03/01 09:30:12;;;;;;;;;;;;;;;4.95;67.81;100682.78;4779937;30;19967;-51
2023/03/01 09:32:42;;;;;;;;;;;;;;;4.97;67.67;100681.59;4786746;30;19953;-52
2023/03/01 09:35:08;;;;;;;;;;;;;;;5.06;67.61;100684.22;4786429;30;19923;-49
2023/03/01 09:37:35;;;;;;;;;;;;;;;4.99;68.00;100692.84;4786405;30;19967;-52
2023/03/01 09:40:01;;;;;;;;;;;;;;;4.90;68.01;100680.63;4770250;30;19994;-47
2023/03/01 09:42:28;;;;;;;;;;;;;;;4.88;68.86;100685.28;4786372;30;19929;-48
2023/03/01 09:45:26;;;;;;;;;;;;;;;4.86;68.53;100681.16;4786452;30;20008;-51
2023/03/01 09:47:52;;;;;;;;;;;;;;;4.95;67.52;100680.13;4747432;30;19914;-47
2023/03/01 09:50:20;;;;;;;;;;;;;;;4.95;67.85;100667.69;4768313;30;20373;-51
2023/03/01 09:52:54;;;;;;;;;;;;;;;4.90;67.96;100670.03;4768625;30;19926;-48
2023/03/01 09:55:30;;;;;;;;;;;;;;;5.05;67.71;100670.09;4776976;30;20001;-47
2023/03/01 09:58:01;;;;;;;;;;;;;;;4.94;67.81;100675.78;4786636;30;19922;-48
2023/03/01 10:00:30;;;;;;;;;;;;;;;4.71;68.57;100671.25;4784088;30;20008;-52
2023/03/01 10:03:00;;;;;;;;;;;;;;;4.84;69.09;100670.72;4785420;30;20316;-51
2023/03/01 10:05:41;;;;;;;;;;;;;;;4.85;69.18;100672.38;4783394;30;19925;-51
2023/03/01 10:08:20;;;;;;;;;;;;;;;4.72;70.53;100672.94;4785216;30;19921;-51
2023/03/01 10:10:47;;;;;;;;;;;;;;;4.66;69.64;100678.06;4784765;29;20150;-51
2023/03/01 10:13:19;;;;;;;;;;;;;;;4.87;68.76;100682.81;4789846;30;20000;-51
2023/03/01 10:15:54;;;;;;;;;;;;;;;4.87;68.38;100680.16;4782168;30;19922;-51
2023/03/01 10:18:23;;;;;;;;;;;;;;;4.71;68.53;100671.25;4786326;30;19921;-51
2023/03/01 10:20:59;;;;;;;;;;;;;;;4.65;68.73;100671.94;4789206;30;19917;-50
2023/03/01 10:23:27;;;;;;;;;;;;;;;4.70;67.94;100668.78;4787631;30;19919;-49
2023/03/01 10:26:12;;;;;;;;;;;;;;;4.69;68.12;100667.13;4771390;30;19947;-51
2023/03/01 10:28:41;;;;;;;;;;;;;;;4.59;68.40;100671.81;4771085;30;19917;-51
2023/03/01 10:31:12;;;;;;;;;;;;;;;4.56;68.98;100680.13;4771325;30;19928;-51
2023/03/01 10:33:39;;;;;;;;;;;;;;;4.47;69.23;100674.00;4771396;30;19918;-47
2023/03/01 10:36:05;;;;;;;;;;;;;;;4.39;67.23;100666.91;4783505;30;19940;-50
2023/03/01 10:38:46;;;;;;;;;;;;;;;4.37;67.76;100671.53;4788310;30;20012;-51
2023/03/01 10:41:12;;;;;;;;;;;;;;;4.35;68.21;100668.25;4789068;30;19975;-49
2023/03/01 10:43:44;;;;;;;;;;;;;;;4.38;68.72;100665.22;4788993;30;19921;-51
2023/03/01 10:46:25;;;;;;;;;;;;;;;4.43;68.68;100662.09;4789104;30;19957;-52
2023/03/01 10:49:08;;;;;;;;;;;;;;;4.23;70.04;100665.13;4788789;30;20432;-51
2023/03/01 10:51:33;;;;;;;;;;;;;;;4.29;69.45;100654.84;4788964;30;20008;-49
2023/03/01 10:53:59;;;;;;;;;;;;;;;4.23;69.39;100659.81;4788849;30;20008;-50
2023/03/01 10:56:25;;;;;;;;;;;;;;;4.30;68.47;100653.84;4788655;30;19925;-48
2023/03/01 10:58:58;;;;;;;;;;;;;;;4.19;68.81;100644.44;4788838;30;19921;-52
2023/03/01 11:01:26;;;;;;;;;;;;;;;4.18;69.52;100650.72;4788748;30;19921;-48
2023/03/01 11:04:12;;;;;;;;;;;;;;;4.23;69.84;100649.22;4788853;30;20008;-52
2023/03/01 11:06:39;;;;;;;;;;;;;;;4.21;69.79;100655.69;4788379;30;20269;-52
2023/03/01 11:09:14;;;;;;;;;;;;;;;4.18;69.33;100663.97;4788635;30;20179;-51
2023/03/01 11:11:40;;;;;;;;;;;;;;;4.12;69.09;100656.72;4788514;30;20466;-49
2023/03/01 11:14:13;;;;;;;;;;;;;;;4.09;70.10;100651.72;4788494;30;20284;-51
2023/03/01 11:16:40;;;;;;;;;;;;;;;4.15;69.93;100651.06;4786286;30;19970;-48
2023/03/01 11:19:09;;;;;;;;;;;;;;;4.14;70.07;100652.88;4778255;30;19925;-51
2023/03/01 11:21:36;;;;;;;;;;;;;;;4.06;70.30;100650.25;4787318;30;20373;-53
2023/03/01 11:24:04;;;;;;;;;;;;;;;4.08;70.12;100655.38;4785941;29;19979;-47
2023/03/01 11:26:31;;;;;;;;;;;;;;;4.08;70.36;100652.75;4786836;30;19973;-52
2023/03/01 11:29:02;;;;;;;;;;;;;;;4.00;71.29;100650.09;4787103;30;19929;-47
2023/03/01 11:31:28;;;;;;;;;;;;;;;3.99;70.82;100651.91;4787953;30;19950;-49
2023/03/01 11:34:00;;;;;;;;;;;;;;;3.98;71.23;100653.72;4788620;30;20365;-48
2023/03/01 11:36:53;;;;;;;;;;;;;;;3.87;71.05;100646.13;4777310;30;20001;-51
2023/03/01 11:39:22;;;;;;;;;;;;;;;4.00;70.78;100650.09;4784367;30;20409;-48
2023/03/01 11:41:52;;;;;;;;;;;;;;;3.94;70.93;100648.94;4787992;30;19956;-51
2023/03/01 11:44:24;;;;;;;;;;;;;;;3.95;70.26;100648.78;4787902;30;19921;-49
2023/03/01 11:46:56;;;;;;;;;;;;;;;3.89;70.44;100654.75;4787810;30;19918;-51
2023/03/01 11:49:31;;;;;;;;;;;;;;;3.74;71.32;100656.41;4787569;30;19926;-52
2023/03/01 11:51:59;;;;;;;;;;;;;;;3.78;69.66;100663.03;4787887;30;19922;-50
2023/03/01 11:54:31;;;;;;;;;;;;;;;3.87;69.73;100659.38;4787873;30;20364;-50
2023/03/01 11:57:11;;;;;;;;;;;;;;;3.83;69.87;100671.31;4770597;30;19922;-51
2023/03/01 12:00:12;;;;;;;;;;;;;;;3.78;69.49;100673.63;4769754;30;19922;-51
2023/03/01 12:02:53;;;;;;;;;;;;;;;3.81;69.43;100677.75;4697984;30;19926;-51
2023/03/01 12:05:31;;;;;;;;;;;;;;;3.79;69.56;100675.28;4762477;30;19921;-51
2023/03/01 12:08:15;;;;;;;;;;;;;;;3.71;69.99;100667.31;4769485;30;19977;-49
2023/03/01 12:10:55;;;;;;;;;;;;;;;3.78;69.09;100681.56;4769687;30;19954;-47
2023/03/01 12:13:29;;;;;;;;;;;;;;;3.64;69.39;100698.91;4769653;30;19925;-48
2023/03/01 12:15:58;;;;;;;;;;;;;;;3.66;69.61;100701.41;4769739;30;20001;-47
2023/03/01 12:18:49;;;;;;;;;;;;;;;3.63;70.00;100707.03;4769344;30;20365;-48
2023/03/01 12:21:41;;;;;;;;;;;;;;;3.70;70.08;100713.31;4753605;30;19917;-47
2023/03/01 12:24:07;;;;;;;;;;;;;;;3.67;70.16;100721.59;4769109;30;19918;-50
2023/03/01 12:26:36;;;;;;;;;;;;;;;3.68;70.28;100721.44;4787236;30;20012;-51
2023/03/01 12:29:11;;;;;;;;;;;;;;;3.49;71.80;100726.19;4787135;30;20381;-51
2023/03/01 12:31:58;;;;;;;;;;;;;;;3.62;71.92;100724.72;4786080;30;19936;-51
2023/03/01 12:34:50;;;;;;;;;;;;;;;3.63;72.07;100733.50;4785889;30;19918;-51
2023/03/01 12:37:16;;;;;;;;;;;;;;;3.73;71.95;100736.81;4785957;30;19964;-48
2023/03/01 12:39:54;;;;;;;;;;;;;;;3.56;71.32;100732.50;4785820;30;20039;-49
2023/03/01 12:42:20;;;;;;;;;;;;;;;3.69;71.48;100735.50;4786896;30;19925;-47
2023/03/01 12:44:58;;;;;;;;;;;;;;;3.58;72.20;100746.38;4776820;30;19987;-49
2023/03/01 12:47:24;;;;;;;;;;;;;;;3.36;72.58;100748.66;4769272;30;19926;-50
2023/03/01 12:49:54;;;;;;;;;;;;;;;3.55;70.77;100744.88;4783645;29;20281;-49
2023/03/01 12:52:26;;;;;;;;;;;;;;;3.55;70.93;100742.22;4786790;30;19921;-46